sensor_id;sensor_type;location;lat;lon;timestamp;P1;durP1;ratioP1;P2;durP2;ratioP2
6386;SDS011;3226;42.162;24.756;2023-04-06T00:02:04;7.50;;;7.20;;
6386;SDS011;3226;42.162;24.756;2023-04-06T00:04:34;7.90;;;7.60;;
6386;SDS011;3226;42.162;24.756;2023-04-06T00:07:02;7.23;;;6.93;;
6386;SDS011;3226;42.162;24.756;2023-04-06T00:09:30;6.93;;;6.63;;
6386;SDS011;3226;42.162;24.756;2023-04-06T00:11:58;6.47;;;6.17;;
6386;SDS011;3226;42.162;24.756;2023-04-06T00:14:26;6.83;;;6.53;;
6386;SDS011;3226;42.162;24.756;2023-04-06T00:16:56;7.70;;;7.40;;
6386;SDS011;3226;42.162;24.756;2023-04-06T00:19:24;7.20;;;6.90;;
6386;SDS011;3226;42.162;24.756;2023-04-06T00:21:53;8.33;;;8.00;;
6386;SDS011;3226;42.162;24.756;2023-04-06T00:24:22;8.63;;;8.27;;
6386;SDS011;3226;42.162;24.756;2023-04-06T00:26:50;9.67;;;9.27;;
6386;SDS011;3226;42.162;24.756;2023-04-06T00:29:18;7.43;;;7.13;;
6386;SDS011;3226;42.162;24.756;2023-04-06T00:31:46;6.77;;;6.47;;
6386;SDS011;3226;42.162;24.756;2023-04-06T00:34:14;6.87;;;6.57;;
6386;SDS011;3226;42.162;24.756;2023-04-06T00:36:42;7.43;;;7.13;;
6386;SDS011;3226;42.162;24.756;2023-04-06T00:39:11;7.37;;;7.07;;
6386;SDS011;3226;42.162;24.756;2023-04-06T00:41:40;7.47;;;7.17;;
6386;SDS011;3226;42.162;24.756;2023-04-06T00:44:14;6.87;;;6.57;;
6386;SDS011;3226;42.162;24.756;2023-04-06T00:46:42;6.90;;;6.60;;
6386;SDS011;3226;42.162;24.756;2023-04-06T00:49:10;6.83;;;6.53;;
6386;SDS011;3226;42.162;24.756;2023-04-06T00:51:38;7.67;;;7.37;;
6386;SDS011;3226;42.162;24.756;2023-04-06T00:54:06;7.17;;;6.87;;
6386;SDS011;3226;42.162;24.756;2023-04-06T00:56:35;7.00;;;6.70;;
6386;SDS011;3226;42.162;24.756;2023-04-06T00:59:04;7.37;;;7.07;;
6386;SDS011;3226;42.162;24.756;2023-04-06T01:01:32;6.87;;;6.57;;
6386;SDS011;3226;42.162;24.756;2023-04-06T01:04:00;6.90;;;6.60;;
6386;SDS011;3226;42.162;24.756;2023-04-06T01:06:29;6.43;;;6.13;;
6386;SDS011;3226;42.162;24.756;2023-04-06T01:08:57;6.53;;;6.23;;
6386;SDS011;3226;42.162;24.756;2023-04-06T01:11:26;5.87;;;5.67;;
6386;SDS011;3226;42.162;24.756;2023-04-06T01:13:55;6.53;;;6.23;;
6386;SDS011;3226;42.162;24.756;2023-04-06T01:16:23;6.73;;;6.43;;
6386;SDS011;3226;42.162;24.756;2023-04-06T01:18:51;6.57;;;6.27;;
6386;SDS011;3226;42.162;24.756;2023-04-06T01:21:19;6.87;;;6.57;;
6386;SDS011;3226;42.162;24.756;2023-04-06T01:23:49;7.47;;;7.17;;
6386;SDS011;3226;42.162;24.756;2023-04-06T01:26:17;6.17;;;5.97;;
6386;SDS011;3226;42.162;24.756;2023-04-06T01:28:45;6.70;;;6.40;;
6386;SDS011;3226;42.162;24.756;2023-04-06T01:31:13;6.73;;;6.43;;
6386;SDS011;3226;42.162;24.756;2023-04-06T01:33:41;7.30;;;7.00;;
6386;SDS011;3226;42.162;24.756;2023-04-06T01:36:09;7.03;;;6.73;;
6386;SDS011;3226;42.162;24.756;2023-04-06T01:38:37;6.60;;;6.30;;
6386;SDS011;3226;42.162;24.756;2023-04-06T01:41:06;7.80;;;7.50;;
6386;SDS011;3226;42.162;24.756;2023-04-06T01:43:35;6.90;;;6.60;;
6386;SDS011;3226;42.162;24.756;2023-04-06T01:46:03;7.53;;;7.23;;
6386;SDS011;3226;42.162;24.756;2023-04-06T01:48:31;7.27;;;6.97;;
6386;SDS011;3226;42.162;24.756;2023-04-06T01:50:59;6.83;;;6.53;;
6386;SDS011;3226;42.162;24.756;2023-04-06T01:53:27;7.27;;;6.97;;
6386;SDS011;3226;42.162;24.756;2023-04-06T01:55:55;7.63;;;7.33;;
6386;SDS011;3226;42.162;24.756;2023-04-06T01:58:25;6.83;;;6.53;;
6386;SDS011;3226;42.162;24.756;2023-04-06T02:00:53;7.33;;;7.03;;
6386;SDS011;3226;42.162;24.756;2023-04-06T02:03:21;6.97;;;6.67;;
6386;SDS011;3226;42.162;24.756;2023-04-06T02:05:49;7.03;;;6.73;;
6386;SDS011;3226;42.162;24.756;2023-04-06T02:08:17;6.63;;;6.33;;
6386;SDS011;3226;42.162;24.756;2023-04-06T02:10:45;6.47;;;6.17;;
6386;SDS011;3226;42.162;24.756;2023-04-06T02:13:13;6.83;;;6.53;;
6386;SDS011;3226;42.162;24.756;2023-04-06T02:15:42;6.67;;;6.37;;
6386;SDS011;3226;42.162;24.756;2023-04-06T02:18:10;6.30;;;6.07;;
6386;SDS011;3226;42.162;24.756;2023-04-06T02:20:38;6.97;;;6.67;;
6386;SDS011;3226;42.162;24.756;2023-04-06T02:23:06;6.73;;;6.43;;
6386;SDS011;3226;42.162;24.756;2023-04-06T02:25:34;7.57;;;7.27;;
6386;SDS011;3226;42.162;24.756;2023-04-06T02:28:02;7.67;;;7.37;;
6386;SDS011;3226;42.162;24.756;2023-04-06T02:30:31;7.77;;;7.47;;
6386;SDS011;3226;42.162;24.756;2023-04-06T02:33:00;6.93;;;6.63;;
6386;SDS011;3226;42.162;24.756;2023-04-06T02:35:29;8.17;;;7.87;;
6386;SDS011;3226;42.162;24.756;2023-04-06T02:37:58;8.10;;;7.80;;
6386;SDS011;3226;42.162;24.756;2023-04-06T02:40:26;7.00;;;6.70;;
6386;SDS011;3226;42.162;24.756;2023-04-06T02:42:54;7.47;;;7.17;;
6386;SDS011;3226;42.162;24.756;2023-04-06T02:45:22;5.90;;;5.70;;
6386;SDS011;3226;42.162;24.756;2023-04-06T02:47:50;6.53;;;6.23;;
6386;SDS011;3226;42.162;24.756;2023-04-06T02:50:20;7.63;;;7.33;;
6386;SDS011;3226;42.162;24.756;2023-04-06T02:52:48;7.30;;;7.00;;
6386;SDS011;3226;42.162;24.756;2023-04-06T02:55:16;7.07;;;6.77;;
6386;SDS011;3226;42.162;24.756;2023-04-06T02:57:47;7.00;;;6.70;;
6386;SDS011;3226;42.162;24.756;2023-04-06T03:00:15;7.43;;;7.13;;
6386;SDS011;3226;42.162;24.756;2023-04-06T03:02:44;7.37;;;7.07;;
6386;SDS011;3226;42.162;24.756;2023-04-06T03:05:12;7.17;;;6.87;;
6386;SDS011;3226;42.162;24.756;2023-04-06T03:07:41;6.87;;;6.57;;
6386;SDS011;3226;42.162;24.756;2023-04-06T03:10:09;6.33;;;6.10;;
6386;SDS011;3226;42.162;24.756;2023-04-06T03:12:37;7.03;;;6.73;;
6386;SDS011;3226;42.162;24.756;2023-04-06T03:15:08;6.90;;;6.60;;
6386;SDS011;3226;42.162;24.756;2023-04-06T03:17:37;6.90;;;6.60;;
6386;SDS011;3226;42.162;24.756;2023-04-06T03:20:05;5.77;;;5.57;;
6386;SDS011;3226;42.162;24.756;2023-04-06T03:22:33;6.47;;;6.17;;
6386;SDS011;3226;42.162;24.756;2023-04-06T03:25:03;6.77;;;6.47;;
6386;SDS011;3226;42.162;24.756;2023-04-06T03:27:32;6.97;;;6.67;;
6386;SDS011;3226;42.162;24.756;2023-04-06T03:30:00;7.13;;;6.83;;
6386;SDS011;3226;42.162;24.756;2023-04-06T03:32:28;7.13;;;6.83;;
6386;SDS011;3226;42.162;24.756;2023-04-06T03:34:56;6.83;;;6.53;;
6386;SDS011;3226;42.162;24.756;2023-04-06T03:37:24;6.50;;;6.20;;
6386;SDS011;3226;42.162;24.756;2023-04-06T03:39:52;7.00;;;6.70;;
6386;SDS011;3226;42.162;24.756;2023-04-06T03:42:21;6.83;;;6.53;;
6386;SDS011;3226;42.162;24.756;2023-04-06T03:44:49;7.90;;;7.60;;
6386;SDS011;3226;42.162;24.756;2023-04-06T03:47:17;6.57;;;6.27;;
6386;SDS011;3226;42.162;24.756;2023-04-06T03:49:45;7.17;;;6.87;;
6386;SDS011;3226;42.162;24.756;2023-04-06T03:52:13;6.80;;;6.50;;
6386;SDS011;3226;42.162;24.756;2023-04-06T03:54:41;7.00;;;6.70;;
6386;SDS011;3226;42.162;24.756;2023-04-06T03:57:09;6.67;;;6.37;;
6386;SDS011;3226;42.162;24.756;2023-04-06T03:59:39;7.30;;;7.00;;
6386;SDS011;3226;42.162;24.756;2023-04-06T04:02:07;7.20;;;6.90;;
6386;SDS011;3226;42.162;24.756;2023-04-06T04:04:35;7.63;;;7.33;;
6386;SDS011;3226;42.162;24.756;2023-04-06T04:07:03;7.43;;;7.13;;
6386;SDS011;3226;42.162;24.756;2023-04-06T04:09:31;8.07;;;7.77;;
6386;SDS011;3226;42.162;24.756;2023-04-06T04:11:59;8.40;;;8.03;;
6386;SDS011;3226;42.162;24.756;2023-04-06T04:14:27;7.30;;;7.00;;
6386;SDS011;3226;42.162;24.756;2023-04-06T04:16:56;7.00;;;6.70;;
6386;SDS011;3226;42.162;24.756;2023-04-06T04:19:24;7.70;;;7.40;;
6386;SDS011;3226;42.162;24.756;2023-04-06T04:21:52;7.30;;;7.00;;
6386;SDS011;3226;42.162;24.756;2023-04-06T04:24:20;7.60;;;7.30;;
6386;SDS011;3226;42.162;24.756;2023-04-06T04:26:48;7.10;;;6.80;;
6386;SDS011;3226;42.162;24.756;2023-04-06T04:29:16;7.00;;;6.70;;
6386;SDS011;3226;42.162;24.756;2023-04-06T04:31:47;7.67;;;7.37;;
6386;SDS011;3226;42.162;24.756;2023-04-06T04:34:17;8.07;;;7.77;;
6386;SDS011;3226;42.162;24.756;2023-04-06T04:36:46;16.67;;;8.40;;
6386;SDS011;3226;42.162;24.756;2023-04-06T04:39:14;8.67;;;8.27;;
6386;SDS011;3226;42.162;24.756;2023-04-06T04:41:42;8.60;;;8.20;;
6386;SDS011;3226;42.162;24.756;2023-04-06T04:44:10;7.70;;;7.40;;
6386;SDS011;3226;42.162;24.756;2023-04-06T04:46:38;8.70;;;8.30;;
6386;SDS011;3226;42.162;24.756;2023-04-06T04:49:07;8.90;;;8.50;;
6386;SDS011;3226;42.162;24.756;2023-04-06T04:51:37;8.67;;;8.27;;
6386;SDS011;3226;42.162;24.756;2023-04-06T04:54:05;9.93;;;9.53;;
6386;SDS011;3226;42.162;24.756;2023-04-06T04:56:33;9.13;;;8.73;;
6386;SDS011;3226;42.162;24.756;2023-04-06T04:59:01;8.57;;;8.17;;
6386;SDS011;3226;42.162;24.756;2023-04-06T05:01:29;7.53;;;7.23;;
6386;SDS011;3226;42.162;24.756;2023-04-06T05:04:12;6.63;;;6.33;;
6386;SDS011;3226;42.162;24.756;2023-04-06T05:06:42;9.67;;;9.27;;
6386;SDS011;3226;42.162;24.756;2023-04-06T05:09:10;8.10;;;7.80;;
6386;SDS011;3226;42.162;24.756;2023-04-06T05:11:38;8.30;;;7.93;;
6386;SDS011;3226;42.162;24.756;2023-04-06T05:14:06;9.03;;;8.63;;
6386;SDS011;3226;42.162;24.756;2023-04-06T05:16:34;9.13;;;8.73;;
6386;SDS011;3226;42.162;24.756;2023-04-06T05:19:02;7.93;;;7.63;;
6386;SDS011;3226;42.162;24.756;2023-04-06T05:21:30;8.77;;;8.37;;
6386;SDS011;3226;42.162;24.756;2023-04-06T05:23:59;8.83;;;8.43;;
6386;SDS011;3226;42.162;24.756;2023-04-06T05:26:28;8.17;;;7.87;;
6386;SDS011;3226;42.162;24.756;2023-04-06T05:28:56;8.00;;;7.70;;
6386;SDS011;3226;42.162;24.756;2023-04-06T05:31:24;7.77;;;7.47;;
6386;SDS011;3226;42.162;24.756;2023-04-06T05:33:52;7.73;;;7.43;;
6386;SDS011;3226;42.162;24.756;2023-04-06T05:36:20;6.77;;;6.47;;
6386;SDS011;3226;42.162;24.756;2023-04-06T05:38:49;7.23;;;6.93;;
6386;SDS011;3226;42.162;24.756;2023-04-06T05:41:20;7.17;;;6.87;;
6386;SDS011;3226;42.162;24.756;2023-04-06T05:43:48;7.70;;;7.40;;
6386;SDS011;3226;42.162;24.756;2023-04-06T05:46:16;7.40;;;7.10;;
6386;SDS011;3226;42.162;24.756;2023-04-06T05:48:44;7.33;;;7.03;;
6386;SDS011;3226;42.162;24.756;2023-04-06T05:51:12;8.50;;;8.10;;
6386;SDS011;3226;42.162;24.756;2023-04-06T05:53:40;6.73;;;6.43;;
6386;SDS011;3226;42.162;24.756;2023-04-06T05:56:08;7.50;;;7.20;;
6386;SDS011;3226;42.162;24.756;2023-04-06T05:58:38;7.03;;;6.73;;
6386;SDS011;3226;42.162;24.756;2023-04-06T06:01:10;7.43;;;7.13;;
6386;SDS011;3226;42.162;24.756;2023-04-06T06:03:38;7.13;;;6.83;;
6386;SDS011;3226;42.162;24.756;2023-04-06T06:06:06;8.00;;;7.70;;
6386;SDS011;3226;42.162;24.756;2023-04-06T06:08:34;6.93;;;6.63;;
6386;SDS011;3226;42.162;24.756;2023-04-06T06:11:02;7.70;;;7.40;;
6386;SDS011;3226;42.162;24.756;2023-04-06T06:13:30;7.03;;;6.73;;
6386;SDS011;3226;42.162;24.756;2023-04-06T06:16:00;6.87;;;6.57;;
6386;SDS011;3226;42.162;24.756;2023-04-06T06:18:31;7.53;;;7.23;;
6386;SDS011;3226;42.162;24.756;2023-04-06T06:20:59;8.53;;;8.13;;
6386;SDS011;3226;42.162;24.756;2023-04-06T06:23:27;8.37;;;8.00;;
6386;SDS011;3226;42.162;24.756;2023-04-06T06:25:55;7.23;;;6.93;;
6386;SDS011;3226;42.162;24.756;2023-04-06T06:28:24;7.20;;;6.90;;
6386;SDS011;3226;42.162;24.756;2023-04-06T06:30:52;6.70;;;6.40;;
6386;SDS011;3226;42.162;24.756;2023-04-06T06:33:22;6.90;;;6.60;;
6386;SDS011;3226;42.162;24.756;2023-04-06T06:35:50;7.17;;;6.87;;
6386;SDS011;3226;42.162;24.756;2023-04-06T06:38:18;7.47;;;7.17;;
6386;SDS011;3226;42.162;24.756;2023-04-06T06:40:49;8.10;;;7.80;;
6386;SDS011;3226;42.162;24.756;2023-04-06T06:43:17;7.07;;;6.77;;
6386;SDS011;3226;42.162;24.756;2023-04-06T06:45:45;6.67;;;6.37;;
6386;SDS011;3226;42.162;24.756;2023-04-06T06:48:13;6.83;;;6.53;;
6386;SDS011;3226;42.162;24.756;2023-04-06T06:50:42;7.63;;;7.33;;
6386;SDS011;3226;42.162;24.756;2023-04-06T06:53:10;6.67;;;6.37;;
6386;SDS011;3226;42.162;24.756;2023-04-06T06:55:39;7.27;;;6.97;;
6386;SDS011;3226;42.162;24.756;2023-04-06T06:58:06;7.20;;;6.90;;
6386;SDS011;3226;42.162;24.756;2023-04-06T07:00:34;6.07;;;5.87;;
6386;SDS011;3226;42.162;24.756;2023-04-06T07:03:02;6.00;;;5.80;;
6386;SDS011;3226;42.162;24.756;2023-04-06T07:05:31;6.37;;;6.07;;
6386;SDS011;3226;42.162;24.756;2023-04-06T07:08:00;6.27;;;6.03;;
6386;SDS011;3226;42.162;24.756;2023-04-06T07:10:28;6.73;;;6.43;;
6386;SDS011;3226;42.162;24.756;2023-04-06T07:12:56;6.27;;;6.03;;
6386;SDS011;3226;42.162;24.756;2023-04-06T07:15:24;6.13;;;5.93;;
6386;SDS011;3226;42.162;24.756;2023-04-06T07:17:53;5.20;;;5.00;;
6386;SDS011;3226;42.162;24.756;2023-04-06T07:20:22;6.80;;;6.50;;
6386;SDS011;3226;42.162;24.756;2023-04-06T07:22:50;6.50;;;6.23;;
6386;SDS011;3226;42.162;24.756;2023-04-06T07:25:19;5.80;;;5.60;;
6386;SDS011;3226;42.162;24.756;2023-04-06T07:27:51;6.67;;;6.37;;
6386;SDS011;3226;42.162;24.756;2023-04-06T07:30:19;6.87;;;6.57;;
6386;SDS011;3226;42.162;24.756;2023-04-06T07:32:48;5.70;;;5.50;;
6386;SDS011;3226;42.162;24.756;2023-04-06T07:35:16;6.53;;;6.23;;
6386;SDS011;3226;42.162;24.756;2023-04-06T07:37:44;6.37;;;6.07;;
6386;SDS011;3226;42.162;24.756;2023-04-06T07:40:12;7.50;;;7.20;;
6386;SDS011;3226;42.162;24.756;2023-04-06T07:42:42;6.17;;;5.97;;
6386;SDS011;3226;42.162;24.756;2023-04-06T07:45:10;6.37;;;6.07;;
6386;SDS011;3226;42.162;24.756;2023-04-06T07:47:39;6.00;;;5.80;;
6386;SDS011;3226;42.162;24.756;2023-04-06T07:50:07;5.97;;;5.77;;
6386;SDS011;3226;42.162;24.756;2023-04-06T07:52:36;6.23;;;6.00;;
6386;SDS011;3226;42.162;24.756;2023-04-06T07:55:04;6.50;;;6.20;;
6386;SDS011;3226;42.162;24.756;2023-04-06T07:57:33;5.43;;;5.23;;
6386;SDS011;3226;42.162;24.756;2023-04-06T08:00:02;6.27;;;6.00;;
6386;SDS011;3226;42.162;24.756;2023-04-06T08:02:32;6.63;;;6.33;;
6386;SDS011;3226;42.162;24.756;2023-04-06T08:05:00;6.83;;;6.53;;
6386;SDS011;3226;42.162;24.756;2023-04-06T08:07:28;6.23;;;6.00;;
6386;SDS011;3226;42.162;24.756;2023-04-06T08:09:56;5.97;;;5.77;;
6386;SDS011;3226;42.162;24.756;2023-04-06T08:12:24;5.80;;;5.60;;
6386;SDS011;3226;42.162;24.756;2023-04-06T08:14:52;6.37;;;6.10;;
6386;SDS011;3226;42.162;24.756;2023-04-06T08:17:22;6.17;;;5.97;;
6386;SDS011;3226;42.162;24.756;2023-04-06T08:19:50;6.97;;;6.67;;
6386;SDS011;3226;42.162;24.756;2023-04-06T08:22:18;6.03;;;5.83;;
6386;SDS011;3226;42.162;24.756;2023-04-06T08:24:46;6.10;;;5.90;;
6386;SDS011;3226;42.162;24.756;2023-04-06T08:27:14;6.27;;;6.03;;
6386;SDS011;3226;42.162;24.756;2023-04-06T08:29:42;5.87;;;5.67;;
6386;SDS011;3226;42.162;24.756;2023-04-06T08:32:10;5.30;;;5.10;;
6386;SDS011;3226;42.162;24.756;2023-04-06T08:34:40;6.03;;;5.83;;
6386;SDS011;3226;42.162;24.756;2023-04-06T08:37:08;6.07;;;5.87;;
6386;SDS011;3226;42.162;24.756;2023-04-06T08:39:36;5.53;;;5.33;;
6386;SDS011;3226;42.162;24.756;2023-04-06T08:42:10;5.57;;;5.37;;
6386;SDS011;3226;42.162;24.756;2023-04-06T08:44:40;5.70;;;5.50;;
6386;SDS011;3226;42.162;24.756;2023-04-06T08:47:09;6.07;;;5.87;;
6386;SDS011;3226;42.162;24.756;2023-04-06T08:49:37;5.93;;;5.73;;
6386;SDS011;3226;42.162;24.756;2023-04-06T08:52:07;6.27;;;6.03;;
6386;SDS011;3226;42.162;24.756;2023-04-06T08:54:35;5.33;;;5.13;;
6386;SDS011;3226;42.162;24.756;2023-04-06T08:57:04;6.60;;;6.30;;
6386;SDS011;3226;42.162;24.756;2023-04-06T08:59:33;5.90;;;5.70;;
6386;SDS011;3226;42.162;24.756;2023-04-06T09:02:04;6.47;;;6.17;;
6386;SDS011;3226;42.162;24.756;2023-04-06T09:04:32;6.67;;;6.37;;
6386;SDS011;3226;42.162;24.756;2023-04-06T09:07:01;5.87;;;5.67;;
6386;SDS011;3226;42.162;24.756;2023-04-06T09:09:31;5.73;;;5.53;;
6386;SDS011;3226;42.162;24.756;2023-04-06T09:11:59;6.17;;;5.93;;
6386;SDS011;3226;42.162;24.756;2023-04-06T09:14:35;5.53;;;5.33;;
6386;SDS011;3226;42.162;24.756;2023-04-06T09:17:04;6.10;;;5.90;;
6386;SDS011;3226;42.162;24.756;2023-04-06T09:19:32;6.83;;;6.53;;
6386;SDS011;3226;42.162;24.756;2023-04-06T09:22:01;6.53;;;6.23;;
6386;SDS011;3226;42.162;24.756;2023-04-06T09:24:41;7.10;;;6.70;;
6386;SDS011;3226;42.162;24.756;2023-04-06T09:27:10;6.10;;;5.90;;
6386;SDS011;3226;42.162;24.756;2023-04-06T09:29:38;6.50;;;6.20;;
6386;SDS011;3226;42.162;24.756;2023-04-06T09:32:08;5.53;;;5.33;;
6386;SDS011;3226;42.162;24.756;2023-04-06T09:34:37;7.20;;;6.90;;
6386;SDS011;3226;42.162;24.756;2023-04-06T09:37:12;6.80;;;6.50;;
6386;SDS011;3226;42.162;24.756;2023-04-06T09:39:42;6.77;;;6.47;;
6386;SDS011;3226;42.162;24.756;2023-04-06T09:42:11;6.83;;;6.53;;
6386;SDS011;3226;42.162;24.756;2023-04-06T09:44:39;6.30;;;6.07;;
6386;SDS011;3226;42.162;24.756;2023-04-06T09:47:07;6.00;;;5.80;;
6386;SDS011;3226;42.162;24.756;2023-04-06T09:49:35;5.87;;;5.67;;
6386;SDS011;3226;42.162;24.756;2023-04-06T09:52:03;7.27;;;6.97;;
6386;SDS011;3226;42.162;24.756;2023-04-06T09:54:34;6.60;;;6.30;;
6386;SDS011;3226;42.162;24.756;2023-04-06T09:57:07;6.27;;;6.03;;
6386;SDS011;3226;42.162;24.756;2023-04-06T09:59:44;5.90;;;5.70;;
6386;SDS011;3226;42.162;24.756;2023-04-06T10:02:20;6.73;;;6.43;;
6386;SDS011;3226;42.162;24.756;2023-04-06T10:04:56;5.93;;;5.73;;
6386;SDS011;3226;42.162;24.756;2023-04-06T10:07:29;5.67;;;5.47;;
6386;SDS011;3226;42.162;24.756;2023-04-06T10:09:58;5.27;;;5.07;;
6386;SDS011;3226;42.162;24.756;2023-04-06T10:12:30;6.03;;;5.83;;
6386;SDS011;3226;42.162;24.756;2023-04-06T10:14:59;5.57;;;5.37;;
6386;SDS011;3226;42.162;24.756;2023-04-06T10:17:27;5.77;;;5.57;;
6386;SDS011;3226;42.162;24.756;2023-04-06T10:19:58;6.23;;;6.00;;
6386;SDS011;3226;42.162;24.756;2023-04-06T10:22:32;6.00;;;5.80;;
6386;SDS011;3226;42.162;24.756;2023-04-06T10:25:06;5.87;;;5.67;;
6386;SDS011;3226;42.162;24.756;2023-04-06T10:27:36;6.13;;;5.93;;
6386;SDS011;3226;42.162;24.756;2023-04-06T10:30:05;6.43;;;6.13;;
6386;SDS011;3226;42.162;24.756;2023-04-06T10:32:34;6.33;;;6.07;;
6386;SDS011;3226;42.162;24.756;2023-04-06T10:35:07;5.43;;;5.23;;
6386;SDS011;3226;42.162;24.756;2023-04-06T10:37:49;6.93;;;6.63;;
6386;SDS011;3226;42.162;24.756;2023-04-06T10:40:19;6.23;;;6.00;;
6386;SDS011;3226;42.162;24.756;2023-04-06T10:42:50;5.97;;;5.77;;
6386;SDS011;3226;42.162;24.756;2023-04-06T10:45:19;6.40;;;5.90;;
6386;SDS011;3226;42.162;24.756;2023-04-06T10:47:48;6.03;;;5.83;;
6386;SDS011;3226;42.162;24.756;2023-04-06T10:50:17;5.30;;;5.10;;
6386;SDS011;3226;42.162;24.756;2023-04-06T10:52:45;6.57;;;6.27;;
6386;SDS011;3226;42.162;24.756;2023-04-06T10:55:14;6.43;;;6.13;;
6386;SDS011;3226;42.162;24.756;2023-04-06T10:57:43;6.77;;;6.47;;
6386;SDS011;3226;42.162;24.756;2023-04-06T11:00:15;6.23;;;5.97;;
6386;SDS011;3226;42.162;24.756;2023-04-06T11:02:45;6.83;;;6.53;;
6386;SDS011;3226;42.162;24.756;2023-04-06T11:05:14;5.73;;;5.53;;
6386;SDS011;3226;42.162;24.756;2023-04-06T11:07:43;5.67;;;5.47;;
6386;SDS011;3226;42.162;24.756;2023-04-06T11:10:11;6.57;;;6.27;;
6386;SDS011;3226;42.162;24.756;2023-04-06T11:12:44;6.50;;;6.20;;
6386;SDS011;3226;42.162;24.756;2023-04-06T11:15:12;6.10;;;5.90;;
6386;SDS011;3226;42.162;24.756;2023-04-06T11:17:42;5.83;;;5.63;;
6386;SDS011;3226;42.162;24.756;2023-04-06T11:20:11;5.57;;;5.37;;
6386;SDS011;3226;42.162;24.756;2023-04-06T11:22:47;6.13;;;5.93;;
6386;SDS011;3226;42.162;24.756;2023-04-06T11:25:17;6.43;;;6.13;;
6386;SDS011;3226;42.162;24.756;2023-04-06T11:27:45;6.03;;;5.83;;
6386;SDS011;3226;42.162;24.756;2023-04-06T11:30:14;6.33;;;6.03;;
6386;SDS011;3226;42.162;24.756;2023-04-06T11:32:45;6.23;;;5.97;;
6386;SDS011;3226;42.162;24.756;2023-04-06T11:35:19;5.63;;;5.43;;
6386;SDS011;3226;42.162;24.756;2023-04-06T11:37:48;5.90;;;5.70;;
6386;SDS011;3226;42.162;24.756;2023-04-06T11:40:20;7.60;;;7.30;;
6386;SDS011;3226;42.162;24.756;2023-04-06T11:42:52;6.40;;;6.10;;
6386;SDS011;3226;42.162;24.756;2023-04-06T11:45:21;6.03;;;5.83;;
6386;SDS011;3226;42.162;24.756;2023-04-06T11:47:56;6.83;;;6.53;;
6386;SDS011;3226;42.162;24.756;2023-04-06T11:50:31;7.10;;;6.80;;
6386;SDS011;3226;42.162;24.756;2023-04-06T11:53:00;6.67;;;6.37;;
6386;SDS011;3226;42.162;24.756;2023-04-06T11:55:36;7.20;;;6.90;;
6386;SDS011;3226;42.162;24.756;2023-04-06T11:58:05;6.80;;;6.50;;
6386;SDS011;3226;42.162;24.756;2023-04-06T12:00:33;7.47;;;7.17;;
6386;SDS011;3226;42.162;24.756;2023-04-06T12:03:04;7.73;;;7.43;;
6386;SDS011;3226;42.162;24.756;2023-04-06T12:05:33;6.97;;;6.67;;
6386;SDS011;3226;42.162;24.756;2023-04-06T12:08:01;6.07;;;5.87;;
6386;SDS011;3226;42.162;24.756;2023-04-06T12:10:29;6.47;;;6.17;;
6386;SDS011;3226;42.162;24.756;2023-04-06T12:12:57;7.97;;;7.67;;
6386;SDS011;3226;42.162;24.756;2023-04-06T12:15:25;6.57;;;6.27;;
6386;SDS011;3226;42.162;24.756;2023-04-06T12:17:53;6.20;;;6.00;;
6386;SDS011;3226;42.162;24.756;2023-04-06T12:20:23;6.73;;;6.43;;
6386;SDS011;3226;42.162;24.756;2023-04-06T12:22:52;6.13;;;5.93;;
6386;SDS011;3226;42.162;24.756;2023-04-06T12:25:21;6.30;;;6.03;;
6386;SDS011;3226;42.162;24.756;2023-04-06T12:27:49;6.43;;;6.13;;
6386;SDS011;3226;42.162;24.756;2023-04-06T12:30:17;5.47;;;5.27;;
6386;SDS011;3226;42.162;24.756;2023-04-06T12:32:45;5.90;;;5.70;;
6386;SDS011;3226;42.162;24.756;2023-04-06T12:35:16;6.13;;;5.93;;
6386;SDS011;3226;42.162;24.756;2023-04-06T12:37:46;6.27;;;6.00;;
6386;SDS011;3226;42.162;24.756;2023-04-06T12:40:14;5.73;;;5.53;;
6386;SDS011;3226;42.162;24.756;2023-04-06T12:42:42;5.93;;;5.73;;
6386;SDS011;3226;42.162;24.756;2023-04-06T12:45:10;6.90;;;6.60;;
6386;SDS011;3226;42.162;24.756;2023-04-06T12:47:38;6.80;;;6.50;;
6386;SDS011;3226;42.162;24.756;2023-04-06T12:50:07;6.83;;;6.53;;
6386;SDS011;3226;42.162;24.756;2023-04-06T12:52:35;5.47;;;5.27;;
6386;SDS011;3226;42.162;24.756;2023-04-06T12:55:05;5.83;;;5.63;;
6386;SDS011;3226;42.162;24.756;2023-04-06T12:57:34;5.83;;;5.63;;
6386;SDS011;3226;42.162;24.756;2023-04-06T13:00:03;7.00;;;6.70;;
6386;SDS011;3226;42.162;24.756;2023-04-06T13:02:34;6.00;;;5.80;;
6386;SDS011;3226;42.162;24.756;2023-04-06T13:05:04;6.30;;;6.00;;
6386;SDS011;3226;42.162;24.756;2023-04-06T13:07:32;6.60;;;6.30;;
6386;SDS011;3226;42.162;24.756;2023-04-06T13:10:00;5.93;;;5.73;;
6386;SDS011;3226;42.162;24.756;2023-04-06T13:12:29;5.90;;;5.70;;
6386;SDS011;3226;42.162;24.756;2023-04-06T13:14:57;6.53;;;6.23;;
6386;SDS011;3226;42.162;24.756;2023-04-06T13:17:26;6.80;;;6.50;;
6386;SDS011;3226;42.162;24.756;2023-04-06T13:19:55;6.00;;;5.80;;
6386;SDS011;3226;42.162;24.756;2023-04-06T13:22:23;6.47;;;6.17;;
6386;SDS011;3226;42.162;24.756;2023-04-06T13:24:51;5.73;;;5.53;;
6386;SDS011;3226;42.162;24.756;2023-04-06T13:27:19;6.50;;;6.20;;
6386;SDS011;3226;42.162;24.756;2023-04-06T13:29:48;6.27;;;5.97;;
6386;SDS011;3226;42.162;24.756;2023-04-06T13:32:16;7.20;;;6.90;;
6386;SDS011;3226;42.162;24.756;2023-04-06T13:34:44;5.63;;;5.43;;
6386;SDS011;3226;42.162;24.756;2023-04-06T13:37:15;5.87;;;5.67;;
6386;SDS011;3226;42.162;24.756;2023-04-06T13:39:43;6.40;;;6.10;;
6386;SDS011;3226;42.162;24.756;2023-04-06T13:42:11;6.50;;;6.20;;
6386;SDS011;3226;42.162;24.756;2023-04-06T13:44:39;6.57;;;6.27;;
6386;SDS011;3226;42.162;24.756;2023-04-06T13:47:08;5.73;;;5.53;;
6386;SDS011;3226;42.162;24.756;2023-04-06T13:49:36;6.80;;;6.50;;
6386;SDS011;3226;42.162;24.756;2023-04-06T13:52:04;5.30;;;5.10;;
6386;SDS011;3226;42.162;24.756;2023-04-06T13:54:32;5.80;;;5.60;;
6386;SDS011;3226;42.162;24.756;2023-04-06T13:57:01;5.90;;;5.70;;
6386;SDS011;3226;42.162;24.756;2023-04-06T13:59:31;6.10;;;5.90;;
6386;SDS011;3226;42.162;24.756;2023-04-06T14:02:00;6.37;;;6.07;;
6386;SDS011;3226;42.162;24.756;2023-04-06T14:04:30;6.43;;;6.13;;
6386;SDS011;3226;42.162;24.756;2023-04-06T14:06:58;6.87;;;6.57;;
6386;SDS011;3226;42.162;24.756;2023-04-06T14:09:26;6.67;;;6.37;;
6386;SDS011;3226;42.162;24.756;2023-04-06T14:11:54;6.70;;;6.30;;
6386;SDS011;3226;42.162;24.756;2023-04-06T14:14:23;6.13;;;5.90;;
6386;SDS011;3226;42.162;24.756;2023-04-06T14:16:51;5.70;;;5.50;;
6386;SDS011;3226;42.162;24.756;2023-04-06T14:19:20;6.57;;;6.27;;
6386;SDS011;3226;42.162;24.756;2023-04-06T14:21:49;5.80;;;5.60;;
6386;SDS011;3226;42.162;24.756;2023-04-06T14:24:17;5.80;;;5.60;;
6386;SDS011;3226;42.162;24.756;2023-04-06T14:26:45;6.30;;;6.00;;
6386;SDS011;3226;42.162;24.756;2023-04-06T14:29:13;5.93;;;5.73;;
6386;SDS011;3226;42.162;24.756;2023-04-06T14:31:42;6.33;;;6.03;;
6386;SDS011;3226;42.162;24.756;2023-04-06T14:34:10;6.30;;;6.00;;
6386;SDS011;3226;42.162;24.756;2023-04-06T14:36:37;6.40;;;6.10;;
6386;SDS011;3226;42.162;24.756;2023-04-06T14:39:07;6.77;;;6.47;;
6386;SDS011;3226;42.162;24.756;2023-04-06T14:41:36;6.87;;;6.57;;
6386;SDS011;3226;42.162;24.756;2023-04-06T14:44:04;5.73;;;5.53;;
6386;SDS011;3226;42.162;24.756;2023-04-06T14:46:32;6.20;;;5.97;;
6386;SDS011;3226;42.162;24.756;2023-04-06T14:49:00;6.60;;;6.30;;
6386;SDS011;3226;42.162;24.756;2023-04-06T14:51:28;6.00;;;5.80;;
6386;SDS011;3226;42.162;24.756;2023-04-06T14:53:56;6.77;;;6.47;;
6386;SDS011;3226;42.162;24.756;2023-04-06T14:56:26;6.40;;;6.10;;
6386;SDS011;3226;42.162;24.756;2023-04-06T14:58:53;6.03;;;5.83;;
6386;SDS011;3226;42.162;24.756;2023-04-06T15:01:25;5.73;;;5.53;;
6386;SDS011;3226;42.162;24.756;2023-04-06T15:03:54;5.63;;;5.43;;
6386;SDS011;3226;42.162;24.756;2023-04-06T15:06:22;5.43;;;5.23;;
6386;SDS011;3226;42.162;24.756;2023-04-06T15:08:50;5.53;;;5.33;;
6386;SDS011;3226;42.162;24.756;2023-04-06T15:11:18;6.00;;;5.80;;